Time;durP1;ratioP1;P1;durP2;ratioP2;P2;SDS_P1;SDS_P2;PMS_P1;PMS_P2;Temp;Humidity;BMP_temperature;BMP_pressure;BME280_temperature;BME280_humidity;BME280_pressure;Samples;Min_cycle;Max_cycle;Signal;HPM_P1;HPM_P2
2023/10/11 00:01:20;;;;;;;9.05;5.18;;;;;;;15.01;100.00;101224.03;5053676;28;20050;-46
2023/10/11 00:03:53;;;;;;;11.52;5.97;;;;;;;15.01;100.00;101223.16;5051643;28;20717;-49
2023/10/11 00:06:25;;;;;;;12.25;5.50;;;;;;;14.98;100.00;101226.91;5059921;28;20478;-48
2023/10/11 00:08:54;;;;;;;12.48;6.03;;;;;;;14.93;100.00;101218.47;5065048;28;20107;-47
2023/10/11 00:11:27;;;;;;;14.75;6.05;;;;;;;14.95;100.00;101218.34;5044657;28;20036;-45
2023/10/11 00:13:56;;;;;;;11.25;5.30;;;;;;;14.92;100.00;101230.03;5047306;28;20072;-50
2023/10/11 00:16:24;;;;;;;13.57;6.13;;;;;;;14.91;100.00;101223.03;5057222;28;20047;-46
2023/10/11 00:18:55;;;;;;;13.52;5.40;;;;;;;14.97;100.00;101214.63;5058327;28;20060;-46
2023/10/11 00:21:40;;;;;;;14.60;5.80;;;;;;;14.96;100.00;101212.94;5053721;28;20053;-45
2023/10/11 00:24:09;;;;;;;12.07;5.65;;;;;;;14.95;100.00;101221.00;5062413;28;20064;-45
2023/10/11 00:26:40;;;;;;;11.88;5.25;;;;;;;14.93;100.00;101223.78;5062837;28;20549;-47
2023/10/11 00:29:11;;;;;;;14.37;5.83;;;;;;;14.96;100.00;101222.69;5065349;28;20040;-45
2023/10/11 00:31:40;;;;;;;11.18;5.45;;;;;;;14.99;100.00;101222.44;5059204;28;20095;-47
2023/10/11 00:34:10;;;;;;;11.73;5.60;;;;;;;14.95;100.00;101221.00;5052962;28;20048;-47
2023/10/11 00:36:45;;;;;;;13.02;5.47;;;;;;;14.93;100.00;101223.78;5067909;28;20039;-47
2023/10/11 00:39:17;;;;;;;11.05;5.00;;;;;;;14.91;100.00;101217.75;5064859;28;20123;-47
2023/10/11 00:41:49;;;;;;;12.25;5.70;;;;;;;14.94;100.00;101221.97;5067238;28;20053;-49
2023/10/11 00:44:20;;;;;;;12.55;5.72;;;;;;;14.91;100.00;101215.09;5070178;28;20043;-47
2023/10/11 00:46:57;;;;;;;11.10;5.75;;;;;;;14.91;100.00;101214.25;5056658;28;20454;-45
2023/10/11 00:49:34;;;;;;;10.48;5.40;;;;;;;14.88;100.00;101204.75;5060470;28;20045;-45
2023/10/11 00:52:06;;;;;;;13.75;5.45;;;;;;;14.87;100.00;101206.56;5054253;28;20094;-46
2023/10/11 00:54:37;;;;;;;16.23;6.18;;;;;;;14.86;100.00;101211.94;5052761;28;20111;-45
2023/10/11 00:57:06;;;;;;;12.55;5.63;;;;;;;14.86;100.00;101209.31;5059491;28;20574;-48
2023/10/11 00:59:36;;;;;;;12.68;5.32;;;;;;;14.88;100.00;101210.03;5058685;28;20139;-47
2023/10/11 01:02:06;;;;;;;10.77;6.03;;;;;;;14.88;100.00;101196.81;5063033;28;20040;-45
2023/10/11 01:04:38;;;;;;;12.45;5.93;;;;;;;14.88;100.00;101196.81;5061947;28;20583;-48
2023/10/11 01:07:09;;;;;;;10.30;5.32;;;;;;;14.88;100.00;101204.75;5058054;28;20098;-46
2023/10/11 01:09:38;;;;;;;13.30;5.80;;;;;;;14.89;100.00;101206.44;5058089;28;20513;-47
2023/10/11 01:12:06;;;;;;;13.68;5.75;;;;;;;14.87;100.00;101209.22;5057076;28;20053;-48
2023/10/11 01:14:45;;;;;;;10.20;5.15;;;;;;;14.89;100.00;101201.16;5048906;28;20073;-46
2023/10/11 01:17:13;;;;;;;11.70;5.55;;;;;;;14.90;100.00;101202.81;5048678;28;20483;-47
2023/10/11 01:19:41;;;;;;;11.63;5.40;;;;;;;14.90;100.00;101196.69;5051655;28;20048;-47
2023/10/11 01:22:13;;;;;;;9.52;5.20;;;;;;;14.91;100.00;101196.56;5051572;28;20103;-46
2023/10/11 01:24:41;;;;;;;12.18;5.45;;;;;;;14.92;100.00;101200.91;5050344;28;20041;-47
2023/10/11 01:27:13;;;;;;;11.23;5.75;;;;;;;14.88;100.00;101199.44;5046852;28;20053;-49
2023/10/11 01:29:41;;;;;;;9.70;5.13;;;;;;;14.87;100.00;101195.13;5051372;28;20052;-48
2023/10/11 01:32:10;;;;;;;12.68;6.00;;;;;;;14.85;100.00;101197.06;5052079;28;20045;-49
2023/10/11 01:34:38;;;;;;;10.75;5.20;;;;;;;14.85;100.00;101192.59;5049111;28;20048;-46
2023/10/11 01:37:07;;;;;;;11.32;5.30;;;;;;;14.88;100.00;101186.22;5052245;28;20049;-48
2023/10/11 01:39:37;;;;;;;12.23;5.38;;;;;;;14.88;100.00;101183.56;5049734;28;20134;-46
2023/10/11 01:42:05;;;;;;;12.10;5.47;;;;;;;14.85;100.00;101184.66;5048984;28;20045;-49
2023/10/11 01:44:34;;;;;;;11.63;5.25;;;;;;;14.88;100.00;101186.22;5052281;28;20103;-46
2023/10/11 01:47:03;;;;;;;13.27;5.60;;;;;;;14.87;100.00;101181.88;5049754;28;20452;-46
2023/10/11 01:49:37;;;;;;;11.05;5.32;;;;;;;14.84;100.00;101182.94;5052787;28;20045;-45
2023/10/11 01:52:06;;;;;;;11.75;5.30;;;;;;;14.84;100.00;101175.00;5053630;28;20060;-46
2023/10/11 01:54:38;;;;;;;11.88;5.25;;;;;;;14.87;100.00;101176.56;5053700;28;20040;-46
2023/10/11 01:57:06;;;;;;;12.98;5.50;;;;;;;14.86;100.00;101174.88;5051631;28;20412;-46
2023/10/11 01:59:34;;;;;;;12.63;5.10;;;;;;;14.86;100.00;101167.81;5048932;28;20088;-47
2023/10/11 02:02:03;;;;;;;10.90;5.68;;;;;;;14.83;100.00;101167.19;5052376;28;20048;-46
2023/10/11 02:04:31;;;;;;;11.05;6.05;;;;;;;14.82;100.00;101169.00;5049854;28;20048;-45
2023/10/11 02:06:59;;;;;;;12.65;5.43;;;;;;;14.81;100.00;101162.00;5047783;28;20459;-45
2023/10/11 02:09:27;;;;;;;13.15;5.68;;;;;;;14.81;100.00;101161.19;5049378;28;20049;-46
2023/10/11 02:11:58;;;;;;;11.10;5.13;;;;;;;14.78;100.00;101162.25;5047634;28;20060;-47
2023/10/11 02:14:28;;;;;;;12.73;5.60;;;;;;;14.80;100.00;101159.50;5052046;28;20496;-49
2023/10/11 02:16:57;;;;;;;12.90;5.75;;;;;;;14.78;100.00;101164.03;5049106;28;20571;-45
2023/10/11 02:19:25;;;;;;;12.95;6.32;;;;;;;14.76;100.00;101156.22;5049853;28;20123;-46
2023/10/11 02:21:54;;;;;;;12.65;6.07;;;;;;;14.75;100.00;101159.88;5050667;28;20048;-45
2023/10/11 02:24:25;;;;;;;11.52;5.38;;;;;;;14.75;100.00;101159.00;5052917;28;20441;-45
2023/10/11 02:26:58;;;;;;;12.85;5.60;;;;;;;14.75;100.00;101159.88;5052979;28;20068;-45
2023/10/11 02:29:26;;;;;;;11.50;6.05;;;;;;;14.75;100.00;101146.63;5049472;28;20060;-45
2023/10/11 02:31:57;;;;;;;11.98;5.97;;;;;;;14.75;100.00;101153.72;5047104;28;20045;-47
2023/10/11 02:34:27;;;;;;;11.88;5.63;;;;;;;14.74;100.00;101149.38;5048627;28;20132;-48
2023/10/11 02:37:03;;;;;;;12.80;5.57;;;;;;;14.73;100.00;101160.94;5048519;28;20123;-46
2023/10/11 02:39:32;;;;;;;12.02;6.18;;;;;;;14.71;100.00;101155.75;5049110;28;20995;-46
2023/10/11 02:42:05;;;;;;;12.60;6.90;;;;;;;14.75;100.00;101148.41;5051379;28;20136;-45
2023/10/11 02:44:39;;;;;;;13.38;5.85;;;;;;;14.75;100.00;101146.63;5050159;28;20072;-49
2023/10/11 02:47:09;;;;;;;11.13;5.70;;;;;;;14.75;100.00;101148.41;5048447;28;20048;-44
2023/10/11 02:49:38;;;;;;;13.30;6.40;;;;;;;14.71;100.00;101150.44;5048938;28;20048;-48
2023/10/11 02:52:07;;;;;;;11.02;6.35;;;;;;;14.69;100.00;101141.78;5047058;28;20589;-46
2023/10/11 02:54:39;;;;;;;14.40;5.40;;;;;;;14.70;100.00;101144.31;5048465;28;20061;-46
2023/10/11 02:57:18;;;;;;;11.20;6.13;;;;;;;14.69;100.00;101144.44;5046753;28;20084;-47
2023/10/11 02:59:50;;;;;;;11.57;6.03;;;;;;;14.70;100.00;101138.19;5050376;28;20049;-46
2023/10/11 03:02:20;;;;;;;12.30;6.22;;;;;;;14.68;100.00;101129.50;5049134;28;20127;-50
2023/10/11 03:04:49;;;;;;;11.60;6.15;;;;;;;14.66;100.00;101124.34;5048444;28;20055;-47
2023/10/11 03:07:22;;;;;;;11.35;6.05;;;;;;;14.67;100.00;101117.22;5052048;28;20461;-48
2023/10/11 03:09:53;;;;;;;13.50;5.82;;;;;;;14.61;100.00;101121.19;5049765;28;20547;-45
2023/10/11 03:12:30;;;;;;;11.55;6.07;;;;;;;14.56;100.00;101126.00;5046868;28;20055;-47
2023/10/11 03:15:06;;;;;;;14.40;6.35;;;;;;;14.51;100.00;101118.41;5047664;28;20048;-48
2023/10/11 03:17:40;;;;;;;10.98;6.10;;;;;;;14.46;100.00;101125.03;5048135;28;20045;-46
2023/10/11 03:20:24;;;;;;;12.93;6.85;;;;;;;14.43;100.00;101114.69;5047837;28;20400;-47
2023/10/11 03:22:52;;;;;;;13.43;6.55;;;;;;;14.35;100.00;101124.03;5050480;28;20147;-47
2023/10/11 03:25:22;;;;;;;15.57;6.53;;;;;;;14.31;100.00;101119.09;5051738;28;20045;-45
2023/10/11 03:27:55;;;;;;;11.95;6.68;;;;;;;14.26;100.00;101129.19;5046373;28;20052;-49
2023/10/11 03:30:24;;;;;;;11.75;6.65;;;;;;;14.23;100.00;101119.69;5048464;28;20044;-47
2023/10/11 03:32:53;;;;;;;14.25;7.00;;;;;;;14.17;100.00;101118.34;5052154;28;20060;-47
2023/10/11 03:35:25;;;;;;;12.88;6.90;;;;;;;14.11;100.00;101123.25;5049030;28;20069;-44
2023/10/11 03:38:00;;;;;;;11.70;6.60;;;;;;;14.10;100.00;101132.19;5047684;28;20056;-45
2023/10/11 03:40:35;;;;;;;13.10;6.50;;;;;;;14.05;100.00;101129.03;5045851;28;20059;-47
2023/10/11 03:43:16;;;;;;;14.45;6.93;;;;;;;14.04;100.00;101125.53;5048436;28;20091;-48
2023/10/11 03:45:49;;;;;;;12.75;7.18;;;;;;;13.99;100.00;101123.25;5049509;28;20044;-47
2023/10/11 03:48:20;;;;;;;14.65;6.95;;;;;;;13.93;100.00;101107.81;5047430;28;20187;-46
2023/10/11 03:50:51;;;;;;;12.93;6.95;;;;;;;13.95;100.00;101105.09;5050743;28;20049;-46
2023/10/11 03:53:20;;;;;;;13.40;6.57;;;;;;;13.95;100.00;101105.91;5046532;28;20519;-46
2023/10/11 03:55:49;;;;;;;13.00;6.85;;;;;;;13.90;100.00;101100.13;5045503;28;20037;-47
2023/10/11 03:58:37;;;;;;;12.93;6.85;;;;;;;13.86;100.00;101104.81;5046308;28;20045;-45
2023/10/11 04:01:14;;;;;;;13.60;7.05;;;;;;;13.84;100.00;101104.06;5050144;28;20045;-48
2023/10/11 04:03:43;;;;;;;12.07;7.28;;;;;;;13.82;100.00;101094.56;5050829;28;20504;-48
2023/10/11 04:06:15;;;;;;;13.32;7.68;;;;;;;13.77;100.00;101102.00;5046692;28;20502;-47
2023/10/11 04:08:48;;;;;;;16.00;7.35;;;;;;;13.75;100.00;101106.56;5049490;28;20109;-46
2023/10/11 04:11:18;;;;;;;12.45;6.80;;;;;;;13.71;100.00;101091.91;5046624;28;20068;-44
2023/10/11 04:13:49;;;;;;;10.75;6.80;;;;;;;13.68;100.00;101096.44;5047000;28;20116;-47
2023/10/11 04:16:18;;;;;;;11.15;6.68;;;;;;;13.65;100.00;101112.53;5046958;28;20052;-46
2023/10/11 04:18:46;;;;;;;11.00;6.78;;;;;;;13.61;100.00;101112.88;5047201;28;20932;-47
2023/10/11 04:21:26;;;;;;;14.35;7.93;;;;;;;13.58;100.00;101103.38;5047108;28;20052;-48
2023/10/11 04:23:57;;;;;;;17.02;7.30;;;;;;;13.56;100.00;101100.00;5046889;28;20813;-47
2023/10/11 04:26:33;;;;;;;15.48;7.40;;;;;;;13.53;100.00;101100.22;5046138;28;20048;-45
2023/10/11 04:29:17;;;;;;;13.07;7.28;;;;;;;13.47;100.00;101098.88;5051013;28;20053;-47
2023/10/11 04:32:09;;;;;;;15.25;7.25;;;;;;;13.47;100.00;101095.38;5047904;28;20428;-46
2023/10/11 04:34:47;;;;;;;15.00;7.50;;;;;;;13.45;100.00;101095.50;5047082;28;20141;-45
2023/10/11 04:37:27;;;;;;;17.70;7.85;;;;;;;13.42;100.00;101097.53;5046266;28;20123;-46
2023/10/11 04:40:15;;;;;;;12.88;7.10;;;;;;;13.39;100.00;101098.59;5046399;28;20053;-45
2023/10/11 04:42:44;;;;;;;16.35;7.72;;;;;;;13.37;100.00;101104.94;5050134;28;20411;-45
2023/10/11 04:45:29;;;;;;;13.55;7.07;;;;;;;13.33;100.00;101099.00;5045868;28;20044;-45
2023/10/11 04:48:19;;;;;;;13.88;7.40;;;;;;;13.31;100.00;101098.28;5046978;28;20072;-47
2023/10/11 04:50:50;;;;;;;15.30;7.88;;;;;;;13.27;100.00;101108.22;5049941;28;20045;-48
2023/10/11 04:53:19;;;;;;;13.85;6.88;;;;;;;13.27;100.00;101121.44;5050789;28;20136;-47
2023/10/11 04:55:58;;;;;;;13.43;7.50;;;;;;;13.25;100.00;101127.78;5048910;28;20495;-47
2023/10/11 04:58:40;;;;;;;13.73;7.97;;;;;;;13.21;100.00;101124.53;5046682;28;20051;-50
2023/10/11 05:01:11;;;;;;;14.35;8.20;;;;;;;13.18;100.00;101135.28;5049412;28;20484;-45
2023/10/11 05:03:40;;;;;;;13.98;7.38;;;;;;;13.15;100.00;101133.72;5047171;28;20045;-47
2023/10/11 05:06:15;;;;;;;16.48;7.80;;;;;;;13.14;100.00;101116.19;5044788;28;20148;-47
2023/10/11 05:08:54;;;;;;;14.32;8.18;;;;;;;13.17;100.00;101102.75;5046520;28;20068;-45
2023/10/11 05:11:36;;;;;;;13.40;7.82;;;;;;;13.18;100.00;101112.38;5052273;28;20507;-44
2023/10/11 05:16:58;;;;;;;13.02;7.43;;;;;;;13.15;100.00;101096.75;5051219;28;20507;-44
2023/10/11 05:19:28;;;;;;;19.75;8.23;;;;;;;13.18;100.00;101088.63;5054109;28;20040;-45
2023/10/11 05:21:55;;;;;;;15.35;7.63;;;;;;;13.14;100.00;101091.56;5053840;28;20512;-46
2023/10/11 05:24:54;;;;;;;16.38;7.88;;;;;;;13.10;100.00;101104.16;5053589;28;20045;-46
2023/10/11 05:27:37;;;;;;;14.45;8.10;;;;;;;13.08;100.00;101105.22;5050771;28;20408;-44
2023/10/11 05:30:11;;;;;;;14.75;7.05;;;;;;;13.08;100.00;101113.16;5049637;28;20106;-44
2023/10/11 05:32:48;;;;;;;13.07;7.72;;;;;;;13.07;100.00;101116.75;5049737;28;20053;-46
2023/10/11 05:35:41;;;;;;;13.43;7.93;;;;;;;13.02;100.00;101115.25;5050683;28;20815;-45
2023/10/11 05:52:17;;;;;;;16.38;8.98;;;;;;;13.15;100.00;101119.66;5053616;28;20055;-44
2023/10/11 05:54:49;;;;;;;16.85;9.20;;;;;;;13.23;100.00;101116.50;5053728;28;20590;-46
2023/10/11 05:57:19;;;;;;;15.20;8.52;;;;;;;13.27;100.00;101097.66;5053447;28;20049;-47
2023/10/11 05:59:48;;;;;;;17.48;8.32;;;;;;;13.31;100.00;101117.59;5053731;28;20049;-44
2023/10/11 06:02:20;;;;;;;17.07;8.70;;;;;;;13.33;100.00;101102.50;5052327;28;20514;-45
2023/10/11 06:04:50;;;;;;;17.35;8.88;;;;;;;13.35;100.00;101090.06;5049663;28;20045;-47
2023/10/11 06:07:20;;;;;;;18.52;9.30;;;;;;;13.42;100.00;101098.38;5050596;28;20044;-46
2023/10/11 06:09:52;;;;;;;15.90;8.65;;;;;;;13.43;100.00;101096.56;5053310;28;20044;-48
2023/10/11 06:12:25;;;;;;;16.98;8.63;;;;;;;13.45;100.00;101092.84;5051870;28;20102;-45
2023/10/11 06:14:55;;;;;;;16.55;8.98;;;;;;;13.50;100.00;101092.53;5053205;28;20503;-48
2023/10/11 06:17:32;;;;;;;20.02;8.93;;;;;;;13.56;100.00;101088.59;5052987;28;20538;-44
2023/10/11 06:20:23;;;;;;;13.98;8.48;;;;;;;13.60;100.00;101090.06;5053084;28;20052;-50
2023/10/11 06:22:51;;;;;;;17.20;8.73;;;;;;;13.66;100.00;101106.31;5052862;28;20057;-49
2023/10/11 06:25:49;;;;;;;18.23;8.63;;;;;;;13.73;100.00;101098.75;5052880;28;20366;-47
2023/10/11 06:28:13;;;;;;;15.98;9.13;;;;;;;13.87;100.00;101097.72;5052908;28;20068;-48
2023/10/11 06:30:46;;;;;;;18.90;9.63;;;;;;;13.86;100.00;101096.88;5052785;28;20047;-45
2023/10/11 06:33:14;;;;;;;15.30;9.55;;;;;;;13.91;100.00;101085.13;5052754;28;20053;-47
2023/10/11 06:35:49;;;;;;;15.90;9.27;;;;;;;13.94;100.00;101088.34;5052791;28;20045;-45
2023/10/11 06:38:18;;;;;;;14.82;8.95;;;;;;;13.98;100.00;101096.91;5052701;28;20044;-47
2023/10/11 06:40:53;;;;;;;16.55;8.48;;;;;;;14.01;100.00;101105.44;5052466;28;20061;-47
2023/10/11 06:43:23;;;;;;;13.85;8.57;;;;;;;14.04;100.00;101101.72;5052538;28;20059;-49
2023/10/11 06:45:51;;;;;;;17.02;9.35;;;;;;;14.09;100.00;101106.69;5052401;28;20155;-47
2023/10/11 06:48:22;;;;;;;14.43;8.95;;;;;;;14.16;100.00;101113.19;5052816;28;20132;-47
2023/10/11 06:50:52;;;;;;;18.73;9.10;;;;;;;14.21;100.00;101103.09;5052686;28;20514;-46
2023/10/11 06:53:21;;;;;;;18.45;9.23;;;;;;;14.32;100.00;101107.56;5052404;28;20075;-45
2023/10/11 06:55:50;;;;;;;16.88;9.32;;;;;;;14.39;100.00;101094.72;5052417;28;20048;-46
2023/10/11 06:58:19;;;;;;;14.18;9.50;;;;;;;14.44;100.00;101090.75;5052137;28;20037;-46
2023/10/11 07:00:48;;;;;;;14.93;9.00;;;;;;;14.51;100.00;101102.53;5052248;28;20056;-49
2023/10/11 07:03:26;;;;;;;17.13;9.02;;;;;;;14.63;100.00;101110.50;5051956;28;20411;-48
2023/10/11 07:05:58;;;;;;;15.75;9.82;;;;;;;14.67;100.00;101114.59;5052202;28;20060;-46
2023/10/11 07:08:32;;;;;;;20.77;9.52;;;;;;;14.74;100.00;101125.53;5052088;28;20569;-49
2023/10/11 07:11:10;;;;;;;15.65;8.90;;;;;;;14.82;100.00;101131.06;5052242;28;20044;-47
2023/10/11 07:13:54;;;;;;;20.50;9.23;;;;;;;14.91;100.00;101134.81;5051986;28;20037;-46
2023/10/11 07:16:27;;;;;;;15.73;9.15;;;;;;;14.97;100.00;101143.13;5051613;28;20037;-48
2023/10/11 07:18:57;;;;;;;17.10;9.90;;;;;;;15.03;100.00;101152.38;5051754;28;20385;-47
2023/10/11 07:21:48;;;;;;;14.57;8.93;;;;;;;15.04;100.00;101151.44;5051910;28;20040;-48
2023/10/11 07:24:33;;;;;;;17.42;9.90;;;;;;;15.09;100.00;101151.88;5051748;28;20060;-45
2023/10/11 07:27:09;;;;;;;17.15;9.52;;;;;;;15.16;100.00;101157.53;5051795;28;20056;-47
2023/10/11 07:29:42;;;;;;;16.75;9.35;;;;;;;15.22;100.00;101165.00;5051653;28;20049;-46
2023/10/11 07:32:18;;;;;;;16.67;9.57;;;;;;;15.24;100.00;101154.28;5050834;28;20076;-46
2023/10/11 07:34:48;;;;;;;17.05;10.00;;;;;;;15.26;100.00;101144.44;5051515;28;20073;-46
2023/10/11 07:37:25;;;;;;;17.17;9.50;;;;;;;15.29;100.00;101139.69;5051218;28;20033;-46
2023/10/11 07:40:00;;;;;;;16.73;9.95;;;;;;;15.32;100.00;101134.16;5050188;28;20134;-45
2023/10/11 07:42:36;;;;;;;19.90;10.65;;;;;;;15.40;100.00;101132.72;5051574;28;20504;-46
2023/10/11 07:45:12;;;;;;;17.23;9.75;;;;;;;15.43;100.00;101140.41;5051539;28;20045;-48
2023/10/11 07:47:45;;;;;;;16.55;9.82;;;;;;;15.46;100.00;101140.16;5050153;28;20056;-48
2023/10/11 07:50:14;;;;;;;;;;;;;;;15.51;100.00;101133.50;5052031;28;20540;-47
2023/10/11 07:52:44;;;;;;;20.95;10.82;;;;;;;15.54;100.00;101143.00;5051451;28;19971;-47
2023/10/11 07:55:17;;;;;;;16.42;10.13;;;;;;;15.60;100.00;101158.44;5051489;28;20067;-48
2023/10/11 07:57:46;;;;;;;17.92;10.80;;;;;;;15.62;100.00;101153.81;5051214;28;20051;-45
2023/10/11 08:00:18;;;;;;;17.73;9.95;;;;;;;15.66;100.00;101157.09;5051423;28;20067;-47
2023/10/11 08:02:56;;;;;;;19.30;10.45;;;;;;;15.67;100.00;101156.94;5051234;28;20400;-49
2023/10/11 08:05:25;;;;;;;18.17;10.38;;;;;;;15.71;100.00;101166.34;5050012;28;20055;-45
2023/10/11 08:07:55;;;;;;;17.83;10.23;;;;;;;15.74;100.00;101162.59;5051550;28;20063;-48
2023/10/11 08:10:34;;;;;;;18.65;10.27;;;;;;;15.78;100.00;101156.06;5051309;28;20508;-47
2023/10/11 08:13:03;;;;;;;22.00;10.38;;;;;;;15.79;100.00;101156.91;5051312;28;20141;-45
2023/10/11 08:15:32;;;;;;;16.67;10.27;;;;;;;15.84;100.00;101154.75;5051245;28;20119;-46
2023/10/11 08:18:00;;;;;;;16.75;10.63;;;;;;;15.88;100.00;101161.47;5051068;28;20507;-46
2023/10/11 08:20:29;;;;;;;22.33;11.55;;;;;;;15.96;100.00;101143.13;5051200;28;20510;-46
2023/10/11 08:22:59;;;;;;;20.02;11.30;;;;;;;16.06;100.00;101135.25;5051201;28;20059;-48
2023/10/11 08:25:29;;;;;;;22.05;11.38;;;;;;;16.21;100.00;101144.56;5050815;28;20052;-47
2023/10/11 08:28:12;;;;;;;19.05;10.73;;;;;;;16.36;100.00;101147.75;5050421;28;20053;-46
2023/10/11 08:30:45;;;;;;;22.10;11.20;;;;;;;16.61;100.00;101147.47;5050940;28;20076;-49
2023/10/11 08:33:14;;;;;;;17.80;11.05;;;;;;;16.76;100.00;101148.78;5051202;28;20052;-46
2023/10/11 08:35:46;;;;;;;16.77;10.60;;;;;;;16.85;100.00;101155.97;5050951;28;20041;-47
2023/10/11 08:38:18;;;;;;;18.67;11.25;;;;;;;16.95;100.00;101171.13;5050742;28;20052;-47
2023/10/11 08:40:50;;;;;;;20.00;10.88;;;;;;;17.03;100.00;101168.66;5051065;28;20056;-48
2023/10/11 08:43:18;;;;;;;19.77;11.48;;;;;;;17.02;100.00;101170.44;5051107;28;20144;-46
2023/10/11 08:45:49;;;;;;;21.13;11.40;;;;;;;17.04;100.00;101175.63;5054666;28;20041;-47
2023/10/11 08:48:18;;;;;;;22.58;11.40;;;;;;;17.08;100.00;101192.97;5054885;28;20049;-48
2023/10/11 08:50:53;;;;;;;20.40;11.77;;;;;;;17.15;100.00;101178.19;5053384;28;20107;-46
2023/10/11 08:53:25;;;;;;;17.27;10.48;;;;;;;17.16;100.00;101171.06;5054777;28;20053;-47
2023/10/11 08:55:56;;;;;;;19.15;11.85;;;;;;;17.16;100.00;101171.88;5054950;28;20523;-47
2023/10/11 08:58:27;;;;;;;17.85;11.95;;;;;;;17.23;100.00;101185.47;5054585;28;20041;-47
2023/10/11 09:00:59;;;;;;;21.55;13.23;;;;;;;17.21;100.00;101184.78;5054829;28;20423;-46
2023/10/11 09:03:31;;;;;;;19.60;13.23;;;;;;;17.19;100.00;101195.56;5054604;28;20072;-47
2023/10/11 09:06:01;;;;;;;20.42;13.00;;;;;;;17.16;100.00;101190.50;5054385;28;20504;-46
2023/10/11 09:08:32;;;;;;;20.05;13.48;;;;;;;17.16;100.00;101192.31;5054680;28;20523;-48
2023/10/11 09:11:11;;;;;;;;;;;;;;;17.12;100.00;101182.94;5055201;28;20045;-49
2023/10/11 09:13:42;;;;;;;20.50;13.05;;;;;;;17.10;100.00;101183.06;5054215;28;20015;-48
2023/10/11 09:16:12;;;;;;;23.90;14.23;;;;;;;17.06;100.00;101185.16;5054206;28;20451;-47
2023/10/11 09:19:01;;;;;;;26.52;14.35;;;;;;;17.03;100.00;101177.44;5054043;28;20048;-45
2023/10/11 09:21:34;;;;;;;28.13;14.55;;;;;;;17.07;100.00;101175.38;5054374;28;20056;-46
2023/10/11 09:24:22;;;;;;;22.30;14.52;;;;;;;17.11;100.00;101179.44;5054426;28;20067;-48
2023/10/11 09:27:12;;;;;;;23.55;15.00;;;;;;;17.12;100.00;101177.63;5054008;28;20063;-47
2023/10/11 09:29:42;;;;;;;22.90;15.02;;;;;;;17.14;100.00;101165.88;5053835;28;20067;-47
2023/10/11 09:32:13;;;;;;;23.77;14.45;;;;;;;17.21;100.00;101168.84;5053753;28;20194;-49
2023/10/11 09:34:42;;;;;;;27.05;15.85;;;;;;;17.18;100.00;101169.13;5053836;28;20119;-48
2023/10/11 09:37:12;;;;;;;24.85;14.98;;;;;;;17.20;100.00;101170.63;5053604;28;20056;-46
2023/10/11 09:39:42;;;;;;;26.52;15.35;;;;;;;17.16;100.00;101179.03;5053585;28;20044;-46
2023/10/11 09:42:13;;;;;;;28.60;16.27;;;;;;;17.16;100.00;101168.41;5053812;28;20055;-47
2023/10/11 09:44:46;;;;;;;25.13;15.90;;;;;;;17.16;100.00;101161.25;5053766;28;20107;-49
2023/10/11 09:47:17;;;;;;;24.98;15.88;;;;;;;17.18;100.00;101175.28;5053717;28;20049;-46
2023/10/11 09:49:47;;;;;;;24.83;15.88;;;;;;;17.20;100.00;101175.13;5053720;28;20116;-48
2023/10/11 09:52:17;;;;;;;24.98;15.93;;;;;;;17.16;100.00;101173.72;5053157;28;20057;-47
2023/10/11 09:54:50;;;;;;;24.33;16.38;;;;;;;17.18;100.00;101172.63;5050824;28;20698;-47
2023/10/11 09:57:29;;;;;;;27.15;17.23;;;;;;;17.19;100.00;101170.78;5047105;28;20052;-47
2023/10/11 10:00:08;;;;;;;27.30;16.98;;;;;;;17.28;100.00;101182.44;5051079;28;20052;-50
2023/10/11 10:02:38;;;;;;;27.20;18.02;;;;;;;17.30;100.00;101196.41;5049728;28;20045;-47
2023/10/11 10:05:07;;;;;;;25.13;16.50;;;;;;;17.29;100.00;101190.28;5051734;28;20579;-48
2023/10/11 10:07:44;;;;;;;27.25;16.83;;;;;;;17.26;100.00;101198.53;5053435;28;20172;-47
2023/10/11 10:10:16;;;;;;;28.45;17.67;;;;;;;17.22;100.00;101203.25;5048627;28;20036;-48
2023/10/11 10:12:57;;;;;;;26.92;16.88;;;;;;;17.24;100.00;101208.44;5049389;28;20561;-46
2023/10/11 10:15:32;;;;;;;27.63;17.10;;;;;;;17.26;100.00;101216.25;5053740;28;20048;-47
2023/10/11 10:18:19;;;;;;;27.23;16.80;;;;;;;17.26;100.00;101217.13;5053432;28;20499;-49
2023/10/11 10:21:01;;;;;;;26.98;17.38;;;;;;;17.25;100.00;101220.75;5053289;28;20073;-46
2023/10/11 10:23:32;;;;;;;29.17;17.13;;;;;;;17.26;100.00;101229.56;5053281;28;20111;-50
2023/10/11 10:26:26;;;;;;;28.35;16.80;;;;;;;17.24;100.00;101222.56;5053163;28;20060;-47
2023/10/11 10:28:57;;;;;;;24.70;16.35;;;;;;;17.25;100.00;101223.41;5052857;28;20045;-45
2023/10/11 10:31:25;;;;;;;25.13;16.55;;;;;;;17.29;100.00;101226.63;5053257;28;20057;-47
2023/10/11 10:34:29;;;;;;;29.95;17.10;;;;;;;17.23;100.00;101214.72;5052954;28;20107;-45
2023/10/11 10:37:02;;;;;;;23.40;17.25;;;;;;;17.22;100.00;101218.38;5053104;28;20048;-47
2023/10/11 10:39:47;;;;;;;25.38;17.10;;;;;;;17.21;100.00;101214.03;5052541;28;20049;-47
2023/10/11 10:42:18;;;;;;;27.77;17.30;;;;;;;17.29;100.00;101219.50;5053093;28;20674;-47
2023/10/11 10:44:54;;;;;;;25.88;18.05;;;;;;;17.31;100.00;101217.53;5052745;28;20045;-47
2023/10/11 10:47:24;;;;;;;27.88;18.45;;;;;;;17.33;100.00;101210.28;5052300;28;20140;-46
2023/10/11 10:49:54;;;;;;;29.30;18.35;;;;;;;17.35;100.00;101224.25;5050674;28;20111;-47
2023/10/11 10:52:25;;;;;;;25.45;17.45;;;;;;;17.40;100.00;101222.06;5052302;28;20049;-46
2023/10/11 10:55:01;;;;;;;27.60;17.50;;;;;;;17.43;100.00;101230.75;5052516;28;20122;-49
2023/10/11 10:57:36;;;;;;;34.58;17.10;;;;;;;17.39;100.00;101233.66;5052483;28;20436;-46
2023/10/11 11:00:20;;;;;;;28.15;17.98;;;;;;;17.36;100.00;101225.97;5052171;28;20049;-47
2023/10/11 11:02:47;;;;;;;26.25;17.23;;;;;;;17.39;100.00;101220.34;5052203;28;20098;-46
2023/10/11 11:05:25;;;;;;;29.50;17.42;;;;;;;17.37;100.00;101219.66;5052167;28;20043;-47
2023/10/11 11:08:15;;;;;;;29.20;17.42;;;;;;;17.41;100.00;101209.63;5050569;28;20058;-46
2023/10/11 11:10:54;;;;;;;28.75;16.67;;;;;;;17.46;100.00;101215.34;5052074;28;20049;-47
2023/10/11 11:13:27;;;;;;;32.30;17.80;;;;;;;17.50;100.00;101203.47;5052074;28;20383;-47
2023/10/11 11:15:58;;;;;;;34.38;18.30;;;;;;;17.52;100.00;101200.66;5052192;28;20121;-48
2023/10/11 11:18:31;;;;;;;29.23;17.73;;;;;;;17.49;100.00;101195.63;5052328;28;20092;-48
2023/10/11 11:21:17;;;;;;;30.10;15.98;;;;;;;17.55;100.00;101200.41;5051640;28;20447;-45
2023/10/11 11:23:49;;;;;;;26.60;16.90;;;;;;;17.58;100.00;101184.19;5051973;28;20072;-48
2023/10/11 11:26:16;;;;;;;27.45;16.85;;;;;;;17.59;100.00;101180.53;5052278;28;20083;-47
2023/10/11 11:28:51;;;;;;;27.60;17.00;;;;;;;17.68;100.00;101158.44;5051871;28;20357;-46
2023/10/11 11:31:38;;;;;;;24.02;15.50;;;;;;;17.69;100.00;101157.44;5051632;28;20049;-48
2023/10/11 11:34:11;;;;;;;29.38;16.67;;;;;;;17.74;100.00;101149.06;5051862;28;20076;-46
2023/10/11 11:36:44;;;;;;;26.27;14.30;;;;;;;17.85;100.00;101146.25;5051779;28;20045;-47
2023/10/11 11:39:26;;;;;;;;;;;;;;;18.01;100.00;101147.53;5052093;28;20052;-48
2023/10/11 11:41:57;;;;;;;27.02;14.10;;;;;;;18.10;100.00;101148.53;5050429;28;19925;-49
2023/10/11 11:44:30;;;;;;;25.83;14.20;;;;;;;18.21;100.00;101133.22;5051526;28;20041;-47
2023/10/11 11:47:06;;;;;;;23.20;13.77;;;;;;;18.33;100.00;101133.06;5051564;28;20574;-47
2023/10/11 11:49:33;;;;;;;23.73;14.45;;;;;;;18.47;100.00;101121.94;5051430;28;20041;-47
2023/10/11 11:52:01;;;;;;;22.58;12.45;;;;;;;18.54;100.00;101116.88;5051248;28;20127;-47